Time;durP1;ratioP1;P1;durP2;ratioP2;P2;SDS_P1;SDS_P2;PMS_P1;PMS_P2;Temp;Humidity;BMP_temperature;BMP_pressure;BME280_temperature;BME280_humidity;BME280_pressure;Samples;Min_cycle;Max_cycle;Signal;HPM_P1;HPM_P2
2024/04/19 00:06:42;;;;;;;;;;;7.50;99.90;;;;;;6710288;88;20480;-76
2024/04/19 00:16:42;;;;;;;;;;;7.60;99.90;;;;;;6734460;88;20061;-76
2024/04/19 00:26:42;;;;;;;;;;;7.50;99.90;;;;;;6707614;88;20108;-77
2024/04/19 00:36:43;;;;;;;;;;;7.50;99.90;;;;;;6642859;89;20516;-76
2024/04/19 00:46:45;;;;;;;;;;;7.50;99.90;;;;;;6660684;89;20056;-76
2024/04/19 00:56:46;;;;;;;;;;;7.70;99.90;;;;;;6664943;89;20104;-77
2024/04/19 01:06:46;;;;;;;;;;;7.60;99.90;;;;;;6658146;89;20090;-77
2024/04/19 01:16:47;;;;;;;;;;;7.60;99.90;;;;;;6666907;89;20088;-77
2024/04/19 01:26:47;;;;;;;;;;;7.60;99.90;;;;;;6657998;89;20093;-76
2024/04/19 01:36:48;;;;;;;;;;;7.60;99.90;;;;;;6662637;88;20108;-77
2024/04/19 01:46:48;;;;;;;;;;;7.60;99.90;;;;;;6656906;88;20070;-76
2024/04/19 01:56:50;;;;;;;;;;;7.70;99.90;;;;;;6643155;88;20206;-77
2024/04/19 02:06:51;;;;;;;;;;;7.70;99.90;;;;;;6688125;88;20110;-77
2024/04/19 02:16:51;;;;;;;;;;;7.90;99.90;;;;;;6694182;88;20097;-77
2024/04/19 02:26:52;;;;;;;;;;;8.30;99.90;;;;;;6666791;88;20064;-77
2024/04/19 02:36:52;;;;;;;;;;;8.20;99.90;;;;;;6660342;89;20060;-76
2024/04/19 02:46:53;;;;;;;;;;;7.90;99.90;;;;;;6651031;89;20058;-77
2024/04/19 02:56:53;;;;;;;;;;;7.40;99.90;;;;;;6649668;89;20259;-76
2024/04/19 03:06:53;;;;;;;;;;;7.20;99.90;;;;;;6665341;88;20096;-76
2024/04/19 03:16:54;;;;;;;;;;;7.10;99.90;;;;;;6682984;88;20082;-76
2024/04/19 03:26:54;;;;;;;;;;;6.90;99.90;;;;;;6648211;89;20180;-77
2024/04/19 03:36:55;;;;;;;;;;;6.60;99.90;;;;;;6640670;88;20086;-77
2024/04/19 03:46:55;;;;;;;;;;;6.50;99.90;;;;;;6663955;88;20444;-77
2024/04/19 03:56:56;;;;;;;;;;;6.40;99.90;;;;;;6683028;88;20070;-77
2024/04/19 04:06:58;;;;;;;;;;;6.40;99.90;;;;;;6717564;88;20084;-77
2024/04/19 04:16:59;;;;;;;;;;;6.30;99.90;;;;;;6648099;89;20069;-77
2024/04/19 04:26:59;;;;;;;;;;;6.10;99.90;;;;;;6663612;89;20069;-77
2024/04/19 04:37:00;;;;;;;;;;;6.10;99.90;;;;;;6638556;89;20079;-76
2024/04/19 04:47:00;;;;;;;;;;;6.00;99.90;;;;;;6652015;88;20050;-76
2024/04/19 04:57:01;;;;;;;;;;;5.80;99.90;;;;;;6646785;88;20070;-77
2024/04/19 05:07:01;;;;;;;;;;;5.70;99.90;;;;;;6662220;88;20526;-76
2024/04/19 05:17:01;;;;;;;;;;;5.40;99.90;;;;;;6657737;88;20093;-76
2024/04/19 05:27:02;;;;;;;;;;;5.40;99.90;;;;;;6649900;89;20234;-75
2024/04/19 05:48:04;;;;;;;;;;;5.20;99.90;;;;;;6722189;88;20162;-78
2024/04/19 05:58:05;;;;;;;;;;;5.30;99.90;;;;;;6654760;88;20073;-78
2024/04/19 06:08:07;;;;;;;;;;;5.20;99.90;;;;;;6653988;88;20574;-77
2024/04/19 06:18:09;;;;;;;;;;;5.30;99.90;;;;;;6663872;88;20139;-79
2024/04/19 06:28:09;;;;;;;;;;;5.30;99.90;;;;;;6672585;88;20140;-77
2024/04/19 06:38:10;;;;;;;;;;;5.40;99.90;;;;;;6730478;88;20094;-77
2024/04/19 06:48:10;;;;;;;;;;;5.60;99.90;;;;;;6727001;88;20074;-78
2024/04/19 06:58:11;;;;;;;;;;;5.70;99.90;;;;;;6724532;88;20572;-78
2024/04/19 07:08:11;;;;;;;;;;;5.80;99.90;;;;;;6725683;88;20080;-79
2024/04/19 07:18:16;;;;;;;;;;;6.00;99.90;;;;;;6730395;88;20065;-78
2024/04/19 07:28:17;;;;;;;;;;;6.20;99.90;;;;;;6724354;88;20585;-79
2024/04/19 07:38:18;;;;;;;;;;;6.40;99.90;;;;;;6723753;88;20051;-78
2024/04/19 07:48:18;;;;;;;;;;;6.50;99.90;;;;;;6723676;88;20083;-78
2024/04/19 07:58:23;;;;;;;;;;;6.50;99.90;;;;;;6729123;88;20140;-79
2024/04/19 08:08:24;;;;;;;;;;;6.80;99.90;;;;;;6742192;88;20050;-77
2024/04/19 08:18:24;;;;;;;;;;;6.90;99.90;;;;;;6745600;87;20631;-79
2024/04/19 08:28:25;;;;;;;;;;;7.10;99.90;;;;;;6723642;88;20267;-79
2024/04/19 08:38:26;;;;;;;;;;;7.20;99.90;;;;;;6723438;88;20128;-80
2024/04/19 08:48:27;;;;;;;;;;;7.30;99.90;;;;;;6726362;88;20121;-78
2024/04/19 08:58:28;;;;;;;;;;;7.50;99.90;;;;;;6724793;88;20195;-78
2024/04/19 09:08:29;;;;;;;;;;;7.80;99.90;;;;;;6718776;88;20076;-78
2024/04/19 09:18:30;;;;;;;;;;;8.10;99.90;;;;;;6725829;88;20066;-79
2024/04/19 09:28:31;;;;;;;;;;;8.50;99.90;;;;;;6725545;88;20059;-78
2024/04/19 09:38:35;;;;;;;;;;;9.10;99.90;;;;;;6722741;88;20071;-78
2024/04/19 09:48:38;;;;;;;;;;;9.40;99.90;;;;;;6731471;88;20104;-78
2024/04/19 09:58:39;;;;;;;;;;;9.50;99.90;;;;;;6726663;88;20068;-78
2024/04/19 10:08:40;;;;;;;;;;;9.40;99.90;;;;;;6721897;88;20059;-78
2024/04/19 10:18:41;;;;;;;;;;;9.50;99.90;;;;;;6732345;88;20092;-78
2024/04/19 10:28:47;;;;;;;;;;;9.50;99.90;;;;;;6726077;88;20503;-79
2024/04/19 10:38:48;;;;;;;;;;;10.00;99.90;;;;;;6724026;88;20522;-78
2024/04/19 10:48:48;;;;;;;;;;;10.60;99.90;;;;;;6726653;88;20074;-78
2024/04/19 10:58:49;;;;;;;;;;;10.80;99.90;;;;;;6722414;88;20073;-78
2024/04/19 11:08:49;;;;;;;;;;;10.90;99.90;;;;;;6722455;88;20352;-78
2024/04/19 11:18:50;;;;;;;;;;;10.60;99.90;;;;;;6730276;88;20055;-78
2024/04/19 11:28:50;;;;;;;;;;;10.20;99.90;;;;;;6745901;77;20689;-79
2024/04/19 11:38:51;;;;;;;;;;;9.40;99.90;;;;;;6692483;88;20474;-77
2024/04/19 11:48:51;;;;;;;;;;;9.30;99.90;;;;;;6690938;88;20052;-77
2024/04/19 11:58:52;;;;;;;;;;;9.40;99.90;;;;;;6689788;88;20666;-77
2024/04/19 12:08:54;;;;;;;;;;;9.30;99.90;;;;;;6691058;88;20205;-77
2024/04/19 12:18:54;;;;;;;;;;;9.40;99.90;;;;;;6688390;88;20068;-77
2024/04/19 12:28:54;;;;;;;;;;;9.50;99.90;;;;;;6688301;88;20077;-78
2024/04/19 12:38:55;;;;;;;;;;;9.40;99.90;;;;;;6692384;89;20421;-77
2024/04/19 12:49:01;;;;;;;;;;;8.70;99.90;;;;;;6692759;88;20050;-78
2024/04/19 12:59:02;;;;;;;;;;;8.00;99.90;;;;;;6680343;88;20102;-77
2024/04/19 13:09:03;;;;;;;;;;;7.80;99.90;;;;;;6695120;88;20115;-77
2024/04/19 13:19:04;;;;;;;;;;;7.80;99.90;;;;;;6675365;88;20134;-77
2024/04/19 13:29:04;;;;;;;;;;;7.60;99.90;;;;;;6677710;88;20067;-77
2024/04/19 13:39:05;;;;;;;;;;;8.00;99.90;;;;;;6690469;88;20597;-77
2024/04/19 13:49:05;;;;;;;;;;;9.20;99.90;;;;;;6675646;88;20090;-77
2024/04/19 13:59:07;;;;;;;;;;;9.20;99.90;;;;;;6672335;88;20071;-77
2024/04/19 14:09:08;;;;;;;;;;;10.40;99.90;;;;;;6675161;89;20064;-78
2024/04/19 14:19:08;;;;;;;;;;;8.00;99.90;;;;;;6691762;88;20100;-77
2024/04/19 14:29:09;;;;;;;;;;;7.30;99.90;;;;;;6694794;88;20644;-78
2024/04/19 14:39:09;;;;;;;;;;;7.10;99.90;;;;;;6696931;89;20059;-77
2024/04/19 14:49:10;;;;;;;;;;;7.70;99.90;;;;;;6696318;88;20572;-78
2024/04/19 14:59:10;;;;;;;;;;;7.80;99.90;;;;;;6693632;89;20198;-77
2024/04/19 15:09:11;;;;;;;;;;;7.90;99.90;;;;;;6693740;88;20113;-78
2024/04/19 15:19:11;;;;;;;;;;;7.70;99.90;;;;;;6693808;89;20052;-78
2024/04/19 15:29:12;;;;;;;;;;;7.10;99.90;;;;;;6693274;88;20065;-78
2024/04/19 15:39:12;;;;;;;;;;;7.20;99.90;;;;;;6692250;89;20063;-78
2024/04/19 15:49:12;;;;;;;;;;;7.70;99.90;;;;;;6692557;89;20060;-78
2024/04/19 15:59:13;;;;;;;;;;;7.60;99.90;;;;;;6674506;89;20516;-77
2024/04/19 16:09:13;;;;;;;;;;;8.40;99.90;;;;;;6674075;88;20153;-78
2024/04/19 16:19:14;;;;;;;;;;;8.80;99.90;;;;;;6688814;88;20064;-77
2024/04/19 16:29:14;;;;;;;;;;;9.00;99.90;;;;;;6693634;88;20541;-78
2024/04/19 16:39:15;;;;;;;;;;;8.70;99.90;;;;;;6689599;89;20052;-78
2024/04/19 16:49:15;;;;;;;;;;;8.40;99.90;;;;;;6688470;88;20099;-78
2024/04/19 16:59:16;;;;;;;;;;;8.00;99.90;;;;;;6684045;89;20079;-77
2024/04/19 17:09:16;;;;;;;;;;;8.40;99.90;;;;;;6691871;89;20096;-77
2024/04/19 17:19:17;;;;;;;;;;;8.30;99.90;;;;;;6686587;89;20067;-78
2024/04/19 17:39:27;;;;;;;;;;;8.40;99.90;;;;;;6674066;88;20109;-78
2024/04/19 17:49:28;;;;;;;;;;;8.40;99.90;;;;;;6699404;88;20115;-78
2024/04/19 17:59:28;;;;;;;;;;;8.40;99.90;;;;;;6696512;88;20123;-79
2024/04/19 18:09:29;;;;;;;;;;;8.20;99.90;;;;;;6699861;88;20060;-78
2024/04/19 18:19:29;;;;;;;;;;;7.50;99.90;;;;;;6679029;88;20114;-79
2024/04/19 18:29:30;;;;;;;;;;;6.90;99.90;;;;;;6690172;88;20571;-79
2024/04/19 18:39:31;;;;;;;;;;;6.60;99.90;;;;;;6677433;88;20110;-79
2024/04/19 18:49:31;;;;;;;;;;;6.60;99.90;;;;;;6672456;88;20106;-77
2024/04/19 18:59:33;;;;;;;;;;;6.60;99.90;;;;;;6693737;88;20082;-78
2024/04/19 19:09:33;;;;;;;;;;;6.70;99.90;;;;;;6691009;88;20060;-78
2024/04/19 19:19:34;;;;;;;;;;;6.70;99.90;;;;;;6687707;88;20105;-77
2024/04/19 19:29:34;;;;;;;;;;;6.70;99.90;;;;;;6680423;87;20050;-78
2024/04/19 19:39:37;;;;;;;;;;;6.40;99.90;;;;;;6678465;88;20078;-78
2024/04/19 19:49:38;;;;;;;;;;;6.00;99.90;;;;;;6676560;88;20209;-78
2024/04/19 20:09:57;;;;;;;;;;;5.90;99.90;;;;;;6681194;88;20092;-79
2024/04/19 20:19:58;;;;;;;;;;;5.90;99.90;;;;;;6672014;88;20595;-78
2024/04/19 20:29:58;;;;;;;;;;;5.90;99.90;;;;;;6699184;88;20061;-78
2024/04/19 20:39:58;;;;;;;;;;;5.90;99.90;;;;;;6671099;88;20073;-80
2024/04/19 20:50:02;;;;;;;;;;;5.70;99.90;;;;;;6707616;88;20078;-79
2024/04/19 21:00:03;;;;;;;;;;;5.40;99.90;;;;;;6691867;88;20047;-80
2024/04/19 21:10:03;;;;;;;;;;;5.30;99.90;;;;;;6682738;88;20064;-78
2024/04/19 21:20:04;;;;;;;;;;;5.40;99.90;;;;;;6695562;88;20067;-78
2024/04/19 21:30:05;;;;;;;;;;;5.40;99.90;;;;;;6674071;88;20471;-79
2024/04/19 21:40:07;;;;;;;;;;;5.50;99.90;;;;;;6688610;88;20102;-78
2024/04/19 21:50:08;;;;;;;;;;;5.50;99.90;;;;;;6687126;88;20079;-79
2024/04/19 22:00:11;;;;;;;;;;;5.60;99.90;;;;;;6685993;88;20092;-78
2024/04/19 22:10:11;;;;;;;;;;;5.60;99.90;;;;;;6679193;88;20090;-79
2024/04/19 22:20:11;;;;;;;;;;;5.60;99.90;;;;;;6677177;88;20082;-79
2024/04/19 22:30:12;;;;;;;;;;;5.60;99.90;;;;;;6679231;88;20225;-78
2024/04/19 22:40:13;;;;;;;;;;;5.60;99.90;;;;;;6696214;88;20577;-78
2024/04/19 22:50:13;;;;;;;;;;;5.70;99.90;;;;;;6689229;88;20069;-78
2024/04/19 23:00:15;;;;;;;;;;;5.60;99.90;;;;;;6681741;88;20542;-78
2024/04/19 23:10:16;;;;;;;;;;;5.70;99.90;;;;;;6671295;88;20073;-79
2024/04/19 23:20:17;;;;;;;;;;;5.60;99.90;;;;;;6690662;88;20075;-77
2024/04/19 23:30:18;;;;;;;;;;;5.70;99.90;;;;;;6698079;77;20069;-76
2024/04/19 23:40:18;;;;;;;;;;;5.60;99.90;;;;;;6667690;88;20070;-76
2024/04/19 23:50:19;;;;;;;;;;;5.60;99.90;;;;;;6653905;88;20085;-76
